»·PEaware :: DAL478 KSFO-KLAX

DAL478 :: KSFO-KLAX

FLIGHT INFORMATION

Flight Status: Arrived
Operator:
Delta Air Lines
More flights by this operator :: More flights under this callsign
Pilot: Sean Bradley (13609)
Aircraft: BOEING 757-200
(B752)
More flights by this aircraft type
Origin: KSFO San Francisco Intl
United States
Destination: KLAX Los Angeles Intl
United States
More flights between these airports :: More routes between these airports
Route: +OFFSH1 RZS SADDE7
File this flight plan on PilotEdge
Remarks:
Altitude:
(Current/Filed)
31,000ft
Speed:
(Current/Filed)
420kts
Departed: 02-Jan-17 10:37 AM
Arrived: 02-Jan-17 12:02 PM
Distance/Time
Traveled:
293nm/1:25
Distance/Time
To Go:
Arrived

Flight Plot

Page will automatically refresh every two minutes.


Map Options




Map Legend


Flown Route
Filed Route
Departure Airport
Arrival Airport
Navaid (VOR, NDB)
Fix

Horizontal Profiles

Position Reports

Time Latitude Longitude Heading Altitude Ground
Speed
02-Jan-17 09:34 37.614307 -122.382761 27 34ft 0kts
02-Jan-17 09:35 37.614307 -122.382761 27 34ft 0kts
02-Jan-17 09:36 37.614307 -122.382761 27 34ft 0kts
02-Jan-17 09:37 37.614307 -122.382761 27 34ft 0kts
02-Jan-17 09:38 37.614307 -122.382761 27 34ft 0kts
02-Jan-17 09:39 37.614307 -122.382761 27 34ft 0kts
02-Jan-17 09:40 37.614307 -122.382761 27 34ft 0kts
02-Jan-17 09:41 37.614307 -122.382761 27 34ft 0kts
02-Jan-17 09:42 37.614307 -122.382761 27 34ft 0kts
02-Jan-17 09:43 37.614307 -122.382761 27 34ft 0kts
02-Jan-17 09:44 37.614307 -122.382761 27 34ft 0kts
02-Jan-17 09:45 37.614307 -122.382761 27 34ft 0kts
02-Jan-17 09:46 37.614307 -122.382761 27 34ft 0kts
02-Jan-17 09:47 37.614307 -122.382761 27 34ft 0kts
02-Jan-17 09:48 37.614307 -122.382761 27 34ft 0kts
02-Jan-17 09:49 37.614307 -122.382761 27 34ft 0kts
02-Jan-17 09:50 37.614307 -122.382761 27 34ft 0kts
02-Jan-17 09:51 37.614307 -122.382761 27 34ft 0kts
02-Jan-17 09:52 37.614307 -122.382761 27 34ft 0kts
02-Jan-17 09:53 37.614307 -122.382761 27 34ft 0kts
02-Jan-17 09:54 37.614307 -122.382761 27 34ft 0kts
02-Jan-17 09:55 37.614307 -122.382761 27 34ft 0kts
02-Jan-17 09:56 37.614307 -122.382761 27 34ft 0kts
02-Jan-17 09:57 37.614307 -122.382761 27 34ft 0kts
02-Jan-17 09:58 37.614307 -122.382761 27 34ft 0kts
02-Jan-17 09:59 37.614307 -122.382761 27 34ft 0kts
02-Jan-17 10:00 37.614307 -122.382761 27 34ft 0kts
02-Jan-17 10:01 37.614307 -122.382761 27 34ft 0kts
02-Jan-17 10:02 37.614307 -122.382761 27 34ft 0kts
02-Jan-17 10:03 37.614307 -122.382761 27 34ft 0kts
02-Jan-17 10:04 37.614307 -122.382761 27 34ft 0kts
02-Jan-17 10:05 37.614307 -122.382761 27 34ft 0kts
02-Jan-17 10:06 37.614307 -122.382761 27 34ft 0kts
02-Jan-17 10:07 37.614307 -122.382761 27 34ft 0kts
02-Jan-17 10:08 37.614307 -122.382761 27 34ft 0kts
02-Jan-17 10:09 37.614307 -122.382761 27 34ft 0kts
02-Jan-17 10:10 37.614307 -122.382761 27 34ft 0kts
02-Jan-17 10:11 37.614307 -122.382761 27 34ft 0kts
02-Jan-17 10:12 37.614307 -122.382761 27 34ft 0kts
02-Jan-17 10:13 37.614307 -122.382761 27 34ft 0kts
02-Jan-17 10:14 37.614307 -122.382761 27 34ft 0kts
02-Jan-17 10:15 37.614307 -122.382761 27 34ft 0kts
02-Jan-17 10:16 37.614307 -122.382761 27 34ft 0kts
02-Jan-17 10:17 37.614307 -122.382761 27 34ft 0kts
02-Jan-17 10:18 37.614307 -122.382761 27 34ft 0kts
02-Jan-17 10:19 37.614307 -122.382761 27 34ft 0kts
02-Jan-17 10:20 37.614307 -122.382761 27 34ft 0kts
02-Jan-17 10:21 37.614307 -122.382761 27 34ft 0kts
02-Jan-17 10:22 37.614307 -122.382761 27 34ft 0kts
02-Jan-17 10:23 37.613941 -122.382999 28 35ft 1kts
02-Jan-17 10:24 37.613895 -122.383255 117 35ft 0kts
02-Jan-17 10:25 37.613895 -122.383255 117 35ft 0kts
02-Jan-17 10:26 37.613895 -122.383255 117 35ft 0kts
02-Jan-17 10:27 37.613895 -122.383255 117 35ft 0kts
02-Jan-17 10:28 37.613895 -122.383255 117 35ft 0kts
02-Jan-17 10:29 37.613895 -122.383255 117 35ft 0kts
02-Jan-17 10:30 37.613895 -122.383255 117 35ft 0kts
02-Jan-17 10:31 37.613895 -122.383255 117 35ft 0kts
02-Jan-17 10:32 37.613828 -122.383100 119 34ft 4kts
02-Jan-17 10:33 37.612543 -122.382353 206 34ft 11kts
02-Jan-17 10:34 37.610140 -122.384011 212 34ft 15kts
02-Jan-17 10:35 37.609132 -122.383546 123 34ft 0kts
02-Jan-17 10:36 37.609132 -122.383546 123 34ft 0kts
02-Jan-17 10:37 37.609849 -122.381624 28 34ft 41kts
02-Jan-17 10:38 37.640684 -122.365332 355 1348ft 179kts
02-Jan-17 10:39 37.690165 -122.365742 349 3040ft 248kts
02-Jan-17 10:40 37.713578 -122.413694 242 6257ft 216kts
02-Jan-17 10:41 37.676705 -122.446337 219 8680ft 235kts
02-Jan-17 10:42 37.634401 -122.479977 221 11159ft 243kts
02-Jan-17 10:43 37.594207 -122.512374 222 13360ft 246kts
02-Jan-17 10:44 37.542546 -122.554937 223 15765ft 253kts
02-Jan-17 10:45 37.489333 -122.598958 224 17917ft 260kts
02-Jan-17 10:46 37.434812 -122.644587 224 19931ft 265kts
02-Jan-17 10:47 37.377958 -122.691663 223 21854ft 271kts
02-Jan-17 10:48 37.304296 -122.696610 173 23534ft 337kts
02-Jan-17 10:49 37.217844 -122.663864 176 25119ft 342kts
02-Jan-17 10:50 37.129487 -122.632324 176 26578ft 349kts
02-Jan-17 10:51 37.053751 -122.605436 176 27714ft 355kts
02-Jan-17 10:52 36.981225 -122.579756 177 28698ft 360kts
02-Jan-17 10:53 36.899252 -122.556855 180 29725ft 361kts
02-Jan-17 10:54 36.807522 -122.532839 181 30795ft 367kts
02-Jan-17 10:55 36.725147 -122.511429 181 31118ft 363kts
02-Jan-17 10:56 36.651830 -122.492470 181 31122ft 365kts
02-Jan-17 10:57 36.571723 -122.472621 181 31125ft 363kts
02-Jan-17 10:58 36.496881 -122.453579 181 31119ft 364kts
02-Jan-17 10:59 36.410820 -122.416044 151 31133ft 408kts
02-Jan-17 11:00 36.346056 -122.322415 140 31102ft 422kts
02-Jan-17 11:01 36.278059 -122.223786 141 31101ft 422kts
02-Jan-17 11:02 36.209694 -122.124575 142 31109ft 426kts
02-Jan-17 11:03 36.151622 -122.040397 142 31104ft 425kts
02-Jan-17 11:04 36.102812 -121.969784 142 31119ft 425kts
02-Jan-17 11:05 36.056559 -121.903001 142 31118ft 425kts
02-Jan-17 11:06 36.009562 -121.835279 142 31119ft 425kts
02-Jan-17 11:07 35.935661 -121.729057 143 31121ft 425kts
02-Jan-17 11:08 35.863598 -121.625831 142 31128ft 425kts
02-Jan-17 11:09 35.791000 -121.522133 142 31138ft 425kts
02-Jan-17 11:10 35.717409 -121.416893 143 31136ft 431kts
02-Jan-17 11:11 35.650372 -121.321279 144 31119ft 427kts
02-Jan-17 11:12 35.583262 -121.226225 144 31121ft 427kts
02-Jan-17 11:13 35.525250 -121.144299 144 31119ft 427kts
02-Jan-17 11:14 35.451750 -121.039982 144 31126ft 428kts
02-Jan-17 11:15 35.377966 -120.935908 144 31144ft 428kts
02-Jan-17 11:16 35.304518 -120.833000 144 31154ft 428kts
02-Jan-17 11:17 35.232700 -120.733579 146 31149ft 429kts
02-Jan-17 11:18 35.157281 -120.632016 146 31153ft 430kts
02-Jan-17 11:19 35.080744 -120.529204 146 31154ft 430kts
02-Jan-17 11:20 35.007790 -120.431501 146 31155ft 430kts
02-Jan-17 11:21 34.932579 -120.331033 147 31138ft 429kts
02-Jan-17 11:22 34.856914 -120.230543 147 31145ft 428kts
02-Jan-17 11:23 34.780095 -120.128399 147 30476ft 421kts
02-Jan-17 11:24 34.722100 -120.052178 147 29336ft 409kts
02-Jan-17 11:25 34.649875 -119.958037 147 28583ft 407kts
02-Jan-17 11:26 34.592568 -119.882980 146 27186ft 403kts
02-Jan-17 11:27 34.541882 -119.816331 145 26162ft 389kts
02-Jan-17 11:28 34.496956 -119.748386 133 25046ft 395kts
02-Jan-17 11:29 34.445261 -119.652745 133 23626ft 383kts
02-Jan-17 11:30 34.397572 -119.565081 132 22290ft 374kts
02-Jan-17 11:31 34.353558 -119.484320 131 21074ft 365kts
02-Jan-17 11:32 34.310919 -119.406112 130 19896ft 356kts
02-Jan-17 11:33 34.270963 -119.333086 130 18783ft 347kts
02-Jan-17 11:34 34.232554 -119.263035 130 17084ft 335kts
02-Jan-17 11:35 34.195729 -119.195999 130 15540ft 322kts
02-Jan-17 11:36 34.150399 -119.113703 130 14126ft 314kts
02-Jan-17 11:37 34.111201 -119.032308 112 13164ft 313kts
02-Jan-17 11:38 34.087671 -118.945433 112 12357ft 308kts
02-Jan-17 11:39 34.068114 -118.872364 111 11406ft 302kts
02-Jan-17 11:40 34.048443 -118.798911 111 10629ft 296kts
02-Jan-17 11:41 34.035992 -118.725100 98 10182ft 294kts
02-Jan-17 11:42 34.029116 -118.652616 98 9194ft 290kts
02-Jan-17 11:43 34.023148 -118.588741 98 8384ft 285kts
02-Jan-17 11:44 34.016584 -118.518765 99 7587ft 279kts
02-Jan-17 11:45 34.010445 -118.451290 99 7186ft 257kts
02-Jan-17 11:46 34.011574 -118.388424 87 7174ft 255kts
02-Jan-17 11:47 34.015533 -118.328816 87 6563ft 260kts
02-Jan-17 11:48 34.018871 -118.266259 87 5816ft 251kts
02-Jan-17 11:49 34.018305 -118.203395 88 5064ft 246kts
02-Jan-17 11:50 34.017334 -118.142220 88 5006ft 236kts
02-Jan-17 11:51 34.016330 -118.082829 87 4384ft 230kts
02-Jan-17 11:52 33.986954 -118.037719 183 4090ft 227kts
02-Jan-17 11:53 33.955715 -118.069102 231 4021ft 193kts
02-Jan-17 11:54 33.940009 -118.111228 275 4011ft 203kts
02-Jan-17 11:55 33.951924 -118.158613 282 3650ft 186kts
02-Jan-17 11:56 33.955265 -118.203411 258 3054ft 180kts
02-Jan-17 11:57 33.951484 -118.244273 259 2415ft 173kts
02-Jan-17 11:58 33.947623 -118.281273 267 1837ft 163kts
02-Jan-17 11:59 33.943725 -118.321873 261 1095ft 150kts
02-Jan-17 12:00 33.939408 -118.363603 260 365ft 145kts
02-Jan-17 12:01 33.935930 -118.396625 262 114ft 96kts
02-Jan-17 12:02 33.935908 -118.406273 287 129ft 6kts
02-Jan-17 12:03 33.936827 -118.408992 353 130ft 13kts
02-Jan-17 12:04 33.938763 -118.408143 82 130ft 11kts
02-Jan-17 12:05 33.940004 -118.405489 12 126ft 4kts
02-Jan-17 12:06 33.940223 -118.404960 83 126ft 0kts
02-Jan-17 12:07 33.940223 -118.404960 83 126ft 0kts
02-Jan-17 12:08 33.940223 -118.404960 83 126ft 0kts
02-Jan-17 12:09 33.940223 -118.404960 83 126ft 0kts
02-Jan-17 12:10 33.940223 -118.404960 83 126ft 0kts
02-Jan-17 12:11 33.940223 -118.404960 83 126ft 0kts
02-Jan-17 12:12 33.940223 -118.404960 83 126ft 0kts
02-Jan-17 12:13 33.940223 -118.404960 83 126ft 0kts
02-Jan-17 12:14 33.940223 -118.404960 83 126ft 0kts
02-Jan-17 12:15 33.940223 -118.404960 83 126ft 0kts

Navigation Log

Ident Type
1. KSFO Airport
2. MCKEY Fix
3. MQO Navaid
4. RZS Navaid
5. RZS Navaid
6. VTU Navaid
7. SADDE Fix
8. BAYST Fix
9. SMO Navaid
10. KLAX Airport